sensor_id;sensor_type;location;lat;lon;timestamp;pressure;altitude;pressure_sealevel;temperature;humidity
66021;BME280;52789;59.980;30.346;2023-05-03T00:00:50;100855.22;;;4.87;95.23
66021;BME280;52789;59.980;30.346;2023-05-03T00:03:16;100855.94;;;4.89;95.17
66021;BME280;52789;59.980;30.346;2023-05-03T00:05:41;100832.41;;;4.97;95.58
66021;BME280;52789;59.980;30.346;2023-05-03T00:08:07;100835.50;;;5.02;95.33
66021;BME280;52789;59.980;30.346;2023-05-03T00:10:32;100839.00;;;5.03;94.95
66021;BME280;52789;59.980;30.346;2023-05-03T00:12:57;100846.06;;;5.02;95.13
66021;BME280;52789;59.980;30.346;2023-05-03T00:15:23;100846.78;;;5.04;94.01
66021;BME280;52789;59.980;30.346;2023-05-03T00:17:48;100842.84;;;4.98;94.10
66021;BME280;52789;59.980;30.346;2023-05-03T00:20:13;100852.31;;;5.01;94.88
66021;BME280;52789;59.980;30.346;2023-05-03T00:22:39;100867.91;;;5.04;94.87
66021;BME280;52789;59.980;30.346;2023-05-03T00:25:06;100876.78;;;5.03;94.45
66021;BME280;52789;59.980;30.346;2023-05-03T00:27:31;100864.53;;;5.02;94.68
66021;BME280;52789;59.980;30.346;2023-05-03T00:29:57;100867.56;;;4.97;94.16
66021;BME280;52789;59.980;30.346;2023-05-03T00:32:22;100848.72;;;4.91;94.94
66021;BME280;52789;59.980;30.346;2023-05-03T00:34:54;100859.06;;;4.94;95.07
66021;BME280;52789;59.980;30.346;2023-05-03T00:37:20;100850.19;;;4.95;94.86
66021;BME280;52789;59.980;30.346;2023-05-03T00:39:45;100878.47;;;5.04;94.70
66021;BME280;52789;59.980;30.346;2023-05-03T00:42:10;100881.56;;;5.09;95.58
66021;BME280;52789;59.980;30.346;2023-05-03T00:44:36;100902.69;;;5.09;95.61
66021;BME280;52789;59.980;30.346;2023-05-03T00:47:01;100906.03;;;5.11;96.35
66021;BME280;52789;59.980;30.346;2023-05-03T00:49:27;100917.09;;;5.05;96.13
66021;BME280;52789;59.980;30.346;2023-05-03T00:51:53;100897.66;;;5.06;96.06
66021;BME280;52789;59.980;30.346;2023-05-03T00:54:19;100885.28;;;5.07;95.53
66021;BME280;52789;59.980;30.346;2023-05-03T00:56:44;100894.28;;;5.04;95.45
66021;BME280;52789;59.980;30.346;2023-05-03T00:59:10;100892.88;;;5.00;95.37
66021;BME280;52789;59.980;30.346;2023-05-03T01:01:35;100882.31;;;5.00;95.51
66021;BME280;52789;59.980;30.346;2023-05-03T01:04:01;100913.66;;;4.93;96.37
66021;BME280;52789;59.980;30.346;2023-05-03T01:09:02;100917.13;;;4.94;96.38
66021;BME280;52789;59.980;30.346;2023-05-03T01:16:57;100915.31;;;4.94;95.34
66021;BME280;52789;59.980;30.346;2023-05-03T01:22:16;100925.50;;;4.99;95.06
66021;BME280;52789;59.980;30.346;2023-05-03T01:24:40;100927.19;;;5.00;95.20
66021;BME280;52789;59.980;30.346;2023-05-03T01:27:06;100927.31;;;4.98;94.74
66021;BME280;52789;59.980;30.346;2023-05-03T01:29:33;100922.88;;;4.99;95.04
66021;BME280;52789;59.980;30.346;2023-05-03T01:31:59;100944.81;;;5.00;95.33
66021;BME280;52789;59.980;30.346;2023-05-03T01:34:39;100938.69;;;4.99;95.04
66021;BME280;52789;59.980;30.346;2023-05-03T01:37:07;100949.00;;;5.02;95.06
66021;BME280;52789;59.980;30.346;2023-05-03T01:39:41;100943.97;;;4.99;94.76
66021;BME280;52789;59.980;30.346;2023-05-03T01:42:08;100940.25;;;4.90;94.73
66021;BME280;52789;59.980;30.346;2023-05-03T01:44:33;100946.50;;;4.89;95.33
66021;BME280;52789;59.980;30.346;2023-05-03T01:47:00;100945.19;;;4.84;94.77
66021;BME280;52789;59.980;30.346;2023-05-03T01:49:25;100946.38;;;4.80;95.82
66021;BME280;52789;59.980;30.346;2023-05-03T01:51:51;100955.25;;;4.79;95.63
66021;BME280;52789;59.980;30.346;2023-05-03T01:54:16;100944.97;;;4.76;96.40
66021;BME280;52789;59.980;30.346;2023-05-03T01:56:42;100958.28;;;4.74;96.05
66021;BME280;52789;59.980;30.346;2023-05-03T01:59:07;100954.78;;;4.74;96.47
66021;BME280;52789;59.980;30.346;2023-05-03T02:01:33;100966.31;;;4.73;96.12
66021;BME280;52789;59.980;30.346;2023-05-03T02:03:58;100958.97;;;4.76;96.10
66021;BME280;52789;59.980;30.346;2023-05-03T02:06:24;100964.13;;;4.78;96.02
66021;BME280;52789;59.980;30.346;2023-05-03T02:08:50;100980.19;;;4.86;95.67
66021;BME280;52789;59.980;30.346;2023-05-03T02:11:15;100975.31;;;4.92;95.81
66021;BME280;52789;59.980;30.346;2023-05-03T02:14:00;101004.94;;;4.96;95.26
66021;BME280;52789;59.980;30.346;2023-05-03T02:16:26;101000.38;;;4.98;94.89
66021;BME280;52789;59.980;30.346;2023-05-03T02:18:51;101011.88;;;4.97;94.86
66021;BME280;52789;59.980;30.346;2023-05-03T02:21:18;101009.00;;;5.00;94.96
66021;BME280;52789;59.980;30.346;2023-05-03T02:23:43;101027.13;;;5.05;94.91
66021;BME280;52789;59.980;30.346;2023-05-03T02:26:09;101026.28;;;5.04;94.63
66021;BME280;52789;59.980;30.346;2023-05-03T02:28:34;101033.25;;;5.05;94.19
66021;BME280;52789;59.980;30.346;2023-05-03T02:30:59;101030.59;;;5.05;94.32
66021;BME280;52789;59.980;30.346;2023-05-03T02:33:25;101029.88;;;5.03;94.29
66021;BME280;52789;59.980;30.346;2023-05-03T02:35:50;101043.78;;;5.05;94.44
66021;BME280;52789;59.980;30.346;2023-05-03T02:38:15;101041.50;;;5.12;94.39
66021;BME280;52789;59.980;30.346;2023-05-03T02:40:41;101039.59;;;5.14;93.82
66021;BME280;52789;59.980;30.346;2023-05-03T02:43:06;101046.78;;;5.12;93.98
66021;BME280;52789;59.980;30.346;2023-05-03T02:45:33;101048.59;;;5.11;93.85
66021;BME280;52789;59.980;30.346;2023-05-03T02:47:59;101044.97;;;5.12;94.08
66021;BME280;52789;59.980;30.346;2023-05-03T02:50:24;101066.47;;;5.08;94.41
66021;BME280;52789;59.980;30.346;2023-05-03T02:52:49;101062.03;;;5.08;93.03
66021;BME280;52789;59.980;30.346;2023-05-03T02:55:15;101064.31;;;5.13;93.80
66021;BME280;52789;59.980;30.346;2023-05-03T02:57:40;101051.47;;;5.08;92.22
66021;BME280;52789;59.980;30.346;2023-05-03T03:00:06;101073.31;;;5.10;91.83
66021;BME280;52789;59.980;30.346;2023-05-03T03:02:32;101068.63;;;5.14;91.87
66021;BME280;52789;59.980;30.346;2023-05-03T03:04:57;101083.88;;;5.10;92.48
66021;BME280;52789;59.980;30.346;2023-05-03T03:07:23;101079.44;;;5.11;92.45
66021;BME280;52789;59.980;30.346;2023-05-03T03:09:48;101095.50;;;5.08;91.80
66021;BME280;52789;59.980;30.346;2023-05-03T03:12:13;101098.03;;;4.98;92.11
66021;BME280;52789;59.980;30.346;2023-05-03T03:14:39;101099.84;;;4.97;92.35
66021;BME280;52789;59.980;30.346;2023-05-03T03:17:08;101111.72;;;5.03;92.35
66021;BME280;52789;59.980;30.346;2023-05-03T03:19:33;101118.66;;;5.04;91.89
66021;BME280;52789;59.980;30.346;2023-05-03T03:21:59;101126.72;;;5.14;91.29
66021;BME280;52789;59.980;30.346;2023-05-03T03:24:24;101111.72;;;5.14;90.64
66021;BME280;52789;59.980;30.346;2023-05-03T03:26:50;101117.94;;;5.13;91.45
66021;BME280;52789;59.980;30.346;2023-05-03T03:29:16;101110.28;;;5.10;91.80
66021;BME280;52789;59.980;30.346;2023-05-03T03:31:41;101134.75;;;5.12;91.36
66021;BME280;52789;59.980;30.346;2023-05-03T03:34:06;101136.19;;;5.16;90.93
66021;BME280;52789;59.980;30.346;2023-05-03T03:36:32;101132.81;;;5.14;90.18
66021;BME280;52789;59.980;30.346;2023-05-03T03:38:57;101138.09;;;5.14;90.48
66021;BME280;52789;59.980;30.346;2023-05-03T03:41:22;101140.38;;;5.19;90.63
66021;BME280;52789;59.980;30.346;2023-05-03T03:43:48;101149.41;;;5.27;90.41
66021;BME280;52789;59.980;30.346;2023-05-03T03:46:13;101161.31;;;5.22;87.41
66021;BME280;52789;59.980;30.346;2023-05-03T03:48:38;101148.22;;;5.20;88.32
66021;BME280;52789;59.980;30.346;2023-05-03T03:51:04;101152.78;;;5.29;88.05
66021;BME280;52789;59.980;30.346;2023-05-03T03:53:29;101165.88;;;5.31;85.24
66021;BME280;52789;59.980;30.346;2023-05-03T03:55:54;101173.78;;;5.31;84.86
66021;BME280;52789;59.980;30.346;2023-05-03T03:58:20;101162.03;;;5.35;84.34
66021;BME280;52789;59.980;30.346;2023-05-03T04:00:45;101166.34;;;5.36;84.38
66021;BME280;52789;59.980;30.346;2023-05-03T04:03:11;101182.66;;;5.41;84.87
66021;BME280;52789;59.980;30.346;2023-05-03T04:05:36;101185.34;;;5.52;84.61
66021;BME280;52789;59.980;30.346;2023-05-03T04:08:01;101184.97;;;5.68;83.93
66021;BME280;52789;59.980;30.346;2023-05-03T04:10:27;101181.47;;;5.68;82.69
66021;BME280;52789;59.980;30.346;2023-05-03T04:12:52;101181.84;;;5.63;83.35
66021;BME280;52789;59.980;30.346;2023-05-03T04:15:18;101194.34;;;5.61;84.10
66021;BME280;52789;59.980;30.346;2023-05-03T04:17:43;101202.25;;;5.61;84.61
66021;BME280;52789;59.980;30.346;2023-05-03T04:20:09;101205.13;;;5.69;85.23
66021;BME280;52789;59.980;30.346;2023-05-03T04:22:35;101207.41;;;5.74;84.78
66021;BME280;52789;59.980;30.346;2023-05-03T04:25:01;101203.09;;;5.73;85.05
66021;BME280;52789;59.980;30.346;2023-05-03T04:27:26;101212.22;;;5.69;85.73
66021;BME280;52789;59.980;30.346;2023-05-03T04:29:52;101223.41;;;5.61;84.91
66021;BME280;52789;59.980;30.346;2023-05-03T04:32:17;101229.00;;;5.45;85.49
66021;BME280;52789;59.980;30.346;2023-05-03T04:34:50;101218.31;;;5.36;86.25
66021;BME280;52789;59.980;30.346;2023-05-03T04:37:16;101220.25;;;5.34;86.53
66021;BME280;52789;59.980;30.346;2023-05-03T04:39:43;101215.09;;;5.32;86.78
66021;BME280;52789;59.980;30.346;2023-05-03T04:42:10;101243.78;;;5.37;86.60
66021;BME280;52789;59.980;30.346;2023-05-03T04:44:36;101227.34;;;5.33;86.39
66021;BME280;52789;59.980;30.346;2023-05-03T04:47:01;101249.56;;;6.42;83.23
66021;BME280;52789;59.980;30.346;2023-05-03T04:49:26;101242.34;;;8.11;76.21
66021;BME280;52789;59.980;30.346;2023-05-03T04:51:52;101254.91;;;9.17;70.78
66021;BME280;52789;59.980;30.346;2023-05-03T04:54:17;101242.06;;;9.03;71.55
66021;BME280;52789;59.980;30.346;2023-05-03T04:56:42;101248.59;;;9.18;70.60
66021;BME280;52789;59.980;30.346;2023-05-03T04:59:10;101256.69;;;9.36;69.72
66021;BME280;52789;59.980;30.346;2023-05-03T05:01:36;101268.47;;;9.33;70.30
66021;BME280;52789;59.980;30.346;2023-05-03T05:04:01;101270.00;;;8.28;72.34
66021;BME280;52789;59.980;30.346;2023-05-03T05:06:30;101275.97;;;7.29;75.39
66021;BME280;52789;59.980;30.346;2023-05-03T05:08:58;101265.16;;;6.68;77.82
66021;BME280;52789;59.980;30.346;2023-05-03T05:11:23;101271.22;;;6.36;80.20
66021;BME280;52789;59.980;30.346;2023-05-03T05:13:49;101290.00;;;6.00;80.99
66021;BME280;52789;59.980;30.346;2023-05-03T05:16:14;101281.59;;;5.95;82.79
66021;BME280;52789;59.980;30.346;2023-05-03T05:18:39;101287.84;;;5.94;82.45
66021;BME280;52789;59.980;30.346;2023-05-03T05:21:05;101274.03;;;5.90;83.84
66021;BME280;52789;59.980;30.346;2023-05-03T05:23:30;101284.47;;;5.92;83.88
66021;BME280;52789;59.980;30.346;2023-05-03T05:25:56;101292.84;;;5.85;82.44
66021;BME280;52789;59.980;30.346;2023-05-03T05:28:25;101283.50;;;5.93;83.28
66021;BME280;52789;59.980;30.346;2023-05-03T05:30:50;101295.25;;;5.88;83.20
66021;BME280;52789;59.980;30.346;2023-05-03T05:33:16;101288.09;;;5.90;82.70
66021;BME280;52789;59.980;30.346;2023-05-03T05:35:41;101290.59;;;5.92;82.82
66021;BME280;52789;59.980;30.346;2023-05-03T05:38:07;101290.47;;;5.94;81.74
66021;BME280;52789;59.980;30.346;2023-05-03T05:40:32;101293.47;;;6.00;82.41
66021;BME280;52789;59.980;30.346;2023-05-03T05:42:58;101296.47;;;6.07;82.23
66021;BME280;52789;59.980;30.346;2023-05-03T05:45:23;101305.63;;;6.14;82.06
66021;BME280;52789;59.980;30.346;2023-05-03T05:47:48;101300.84;;;6.08;80.04
66021;BME280;52789;59.980;30.346;2023-05-03T05:50:14;101300.09;;;5.95;80.39
66021;BME280;52789;59.980;30.346;2023-05-03T05:52:40;101298.38;;;5.82;81.38
66021;BME280;52789;59.980;30.346;2023-05-03T05:55:05;101309.56;;;5.86;81.91
66021;BME280;52789;59.980;30.346;2023-05-03T05:57:31;101319.19;;;5.98;81.42
66021;BME280;52789;59.980;30.346;2023-05-03T05:59:57;101313.91;;;5.98;79.98
66021;BME280;52789;59.980;30.346;2023-05-03T06:02:22;101310.91;;;6.03;81.43
66021;BME280;52789;59.980;30.346;2023-05-03T06:04:49;101321.47;;;6.03;79.95
66021;BME280;52789;59.980;30.346;2023-05-03T06:07:14;101326.53;;;5.95;81.07
66021;BME280;52789;59.980;30.346;2023-05-03T06:09:40;101329.19;;;5.95;82.04
66021;BME280;52789;59.980;30.346;2023-05-03T06:12:07;101321.97;;;5.97;80.67
66021;BME280;52789;59.980;30.346;2023-05-03T06:14:32;101325.31;;;5.99;80.93
66021;BME280;52789;59.980;30.346;2023-05-03T06:16:57;101321.59;;;6.01;81.10
66021;BME280;52789;59.980;30.346;2023-05-03T06:19:24;101334.81;;;6.01;81.74
66021;BME280;52789;59.980;30.346;2023-05-03T06:21:49;101332.06;;;6.03;82.10
66021;BME280;52789;59.980;30.346;2023-05-03T06:24:15;101346.25;;;6.02;80.58
66021;BME280;52789;59.980;30.346;2023-05-03T06:26:45;101351.88;;;5.97;81.32
66021;BME280;52789;59.980;30.346;2023-05-03T06:29:10;101346.47;;;5.99;81.16
66021;BME280;52789;59.980;30.346;2023-05-03T06:31:36;101345.75;;;5.97;80.35
66021;BME280;52789;59.980;30.346;2023-05-03T06:34:01;101339.50;;;5.98;80.77
66021;BME280;52789;59.980;30.346;2023-05-03T06:36:26;101348.88;;;6.02;81.08
66021;BME280;52789;59.980;30.346;2023-05-03T06:38:54;101355.00;;;6.02;80.17
66021;BME280;52789;59.980;30.346;2023-05-03T06:41:19;101354.16;;;6.02;80.91
66021;BME280;52789;59.980;30.346;2023-05-03T06:43:45;101369.56;;;5.97;82.53
66021;BME280;52789;59.980;30.346;2023-05-03T06:46:10;101369.06;;;5.92;81.52
66021;BME280;52789;59.980;30.346;2023-05-03T06:48:37;101357.78;;;6.01;80.79
66021;BME280;52789;59.980;30.346;2023-05-03T06:51:02;101367.78;;;6.08;81.35
66021;BME280;52789;59.980;30.346;2023-05-03T06:53:27;101369.22;;;6.12;79.99
66021;BME280;52789;59.980;30.346;2023-05-03T06:55:53;101373.41;;;6.04;80.08
66021;BME280;52789;59.980;30.346;2023-05-03T06:58:18;101364.38;;;6.06;81.42
66021;BME280;52789;59.980;30.346;2023-05-03T07:00:43;101386.66;;;6.15;79.89
66021;BME280;52789;59.980;30.346;2023-05-03T07:03:10;101376.06;;;6.15;80.20
66021;BME280;52789;59.980;30.346;2023-05-03T07:05:36;101379.44;;;6.17;78.96
66021;BME280;52789;59.980;30.346;2023-05-03T07:08:01;101384.50;;;6.20;79.72
66021;BME280;52789;59.980;30.346;2023-05-03T07:10:27;101385.44;;;6.19;79.61
66021;BME280;52789;59.980;30.346;2023-05-03T07:12:55;101394.22;;;6.31;80.30
66021;BME280;52789;59.980;30.346;2023-05-03T07:15:21;101392.44;;;6.42;78.69
66021;BME280;52789;59.980;30.346;2023-05-03T07:17:49;101398.34;;;6.46;78.47
66021;BME280;52789;59.980;30.346;2023-05-03T07:20:15;101399.28;;;6.56;78.52
66021;BME280;52789;59.980;30.346;2023-05-03T07:22:40;101402.66;;;6.58;77.98
66021;BME280;52789;59.980;30.346;2023-05-03T07:25:06;101397.22;;;6.60;77.36
66021;BME280;52789;59.980;30.346;2023-05-03T07:27:32;101402.28;;;6.63;76.68
66021;BME280;52789;59.980;30.346;2023-05-03T07:29:57;101404.91;;;6.63;76.90
66021;BME280;52789;59.980;30.346;2023-05-03T07:32:22;101406.59;;;6.64;78.00
66021;BME280;52789;59.980;30.346;2023-05-03T07:34:48;101413.00;;;6.61;76.49
66021;BME280;52789;59.980;30.346;2023-05-03T07:37:13;101424.28;;;6.63;76.57
66021;BME280;52789;59.980;30.346;2023-05-03T07:39:40;101421.31;;;6.68;77.03
66021;BME280;52789;59.980;30.346;2023-05-03T07:42:06;101427.31;;;6.70;76.86
66021;BME280;52789;59.980;30.346;2023-05-03T07:44:31;101422.25;;;6.78;75.78
66021;BME280;52789;59.980;30.346;2023-05-03T07:46:57;101428.25;;;6.80;76.71
66021;BME280;52789;59.980;30.346;2023-05-03T07:49:22;101436.44;;;6.88;76.46
66021;BME280;52789;59.980;30.346;2023-05-03T07:51:50;101431.13;;;6.88;76.91
66021;BME280;52789;59.980;30.346;2023-05-03T07:54:15;101439.22;;;6.98;76.25
66021;BME280;52789;59.980;30.346;2023-05-03T07:56:40;101430.88;;;7.02;76.06
66021;BME280;52789;59.980;30.346;2023-05-03T07:59:05;101438.84;;;7.02;76.35
66021;BME280;52789;59.980;30.346;2023-05-03T08:01:32;101451.34;;;7.00;75.41
66021;BME280;52789;59.980;30.346;2023-05-03T08:03:57;101440.75;;;7.00;74.74
66021;BME280;52789;59.980;30.346;2023-05-03T08:06:22;101452.28;;;7.10;75.77
66021;BME280;52789;59.980;30.346;2023-05-03T08:08:48;101450.13;;;7.15;75.11
66021;BME280;52789;59.980;30.346;2023-05-03T08:11:13;101449.59;;;7.22;74.16
66021;BME280;52789;59.980;30.346;2023-05-03T08:13:39;101456.38;;;7.26;74.47
66021;BME280;52789;59.980;30.346;2023-05-03T08:16:05;101449.13;;;7.28;73.66
66021;BME280;52789;59.980;30.346;2023-05-03T08:18:33;101448.63;;;7.34;73.56
66021;BME280;52789;59.980;30.346;2023-05-03T08:20:59;101449.22;;;7.37;73.15
66021;BME280;52789;59.980;30.346;2023-05-03T08:23:24;101461.97;;;7.43;73.73
66021;BME280;52789;59.980;30.346;2023-05-03T08:25:50;101449.88;;;7.51;72.96
66021;BME280;52789;59.980;30.346;2023-05-03T08:28:15;101466.41;;;7.54;73.03
66021;BME280;52789;59.980;30.346;2023-05-03T08:30:41;101471.19;;;7.60;71.99
66021;BME280;52789;59.980;30.346;2023-05-03T08:33:07;101466.09;;;7.68;71.36
66021;BME280;52789;59.980;30.346;2023-05-03T08:35:36;101470.31;;;7.71;70.62
66021;BME280;52789;59.980;30.346;2023-05-03T08:38:01;101472.03;;;7.61;71.15
66021;BME280;52789;59.980;30.346;2023-05-03T08:40:27;101479.03;;;7.62;71.78
66021;BME280;52789;59.980;30.346;2023-05-03T08:42:52;101477.94;;;7.64;72.57
66021;BME280;52789;59.980;30.346;2023-05-03T08:45:20;101470.16;;;7.72;72.63
66021;BME280;52789;59.980;30.346;2023-05-03T08:47:51;101478.44;;;7.79;72.88
66021;BME280;52789;59.980;30.346;2023-05-03T08:50:17;101477.03;;;7.75;72.61
66021;BME280;52789;59.980;30.346;2023-05-03T08:52:43;101491.50;;;7.82;73.60
66021;BME280;52789;59.980;30.346;2023-05-03T08:55:09;101490.38;;;7.85;72.93
66021;BME280;52789;59.980;30.346;2023-05-03T08:57:34;101493.03;;;7.85;72.28
66021;BME280;52789;59.980;30.346;2023-05-03T09:00:00;101497.00;;;7.90;71.55
66021;BME280;52789;59.980;30.346;2023-05-03T09:02:26;101499.97;;;7.97;70.92
66021;BME280;52789;59.980;30.346;2023-05-03T09:04:52;101509.22;;;8.02;70.63
66021;BME280;52789;59.980;30.346;2023-05-03T09:07:17;101514.63;;;8.12;71.48
66021;BME280;52789;59.980;30.346;2023-05-03T09:09:44;101517.19;;;8.23;70.84
66021;BME280;52789;59.980;30.346;2023-05-03T09:12:10;101506.59;;;8.23;68.99
66021;BME280;52789;59.980;30.346;2023-05-03T09:14:44;101517.00;;;8.15;68.87
66021;BME280;52789;59.980;30.346;2023-05-03T09:17:14;101504.91;;;8.22;68.25
66021;BME280;52789;59.980;30.346;2023-05-03T09:19:49;101519.84;;;8.23;68.63
66021;BME280;52789;59.980;30.346;2023-05-03T09:22:15;101517.66;;;8.28;68.15
66021;BME280;52789;59.980;30.346;2023-05-03T09:24:47;101519.81;;;8.34;68.52
66021;BME280;52789;59.980;30.346;2023-05-03T09:27:18;101529.81;;;8.31;68.10
66021;BME280;52789;59.980;30.346;2023-05-03T09:29:45;101538.50;;;8.33;68.52
66021;BME280;52789;59.980;30.346;2023-05-03T09:32:11;101547.53;;;8.42;68.27
66021;BME280;52789;59.980;30.346;2023-05-03T09:34:36;101540.75;;;8.49;67.42
66021;BME280;52789;59.980;30.346;2023-05-03T09:37:02;101540.03;;;8.47;66.88
66021;BME280;52789;59.980;30.346;2023-05-03T09:39:27;101544.38;;;8.48;66.87
66021;BME280;52789;59.980;30.346;2023-05-03T09:41:53;101544.41;;;8.57;67.23
66021;BME280;52789;59.980;30.346;2023-05-03T09:44:18;101543.19;;;8.61;66.73
66021;BME280;52789;59.980;30.346;2023-05-03T09:47:03;101558.00;;;8.64;66.26
66021;BME280;52789;59.980;30.346;2023-05-03T09:49:29;101548.44;;;8.73;66.51
66021;BME280;52789;59.980;30.346;2023-05-03T09:51:55;101550.50;;;8.69;64.26
66021;BME280;52789;59.980;30.346;2023-05-03T09:54:20;101554.59;;;8.73;64.91
66021;BME280;52789;59.980;30.346;2023-05-03T09:56:46;101551.31;;;8.90;64.96
66021;BME280;52789;59.980;30.346;2023-05-03T09:59:13;101559.38;;;9.10;63.54
66021;BME280;52789;59.980;30.346;2023-05-03T10:01:38;101565.56;;;9.20;61.94
66021;BME280;52789;59.980;30.346;2023-05-03T10:04:04;101558.84;;;9.16;63.36
66021;BME280;52789;59.980;30.346;2023-05-03T10:06:34;101566.25;;;9.22;63.31
66021;BME280;52789;59.980;30.346;2023-05-03T10:11:33;101573.25;;;9.23;62.39
66021;BME280;52789;59.980;30.346;2023-05-03T10:14:00;101577.03;;;9.20;63.26
66021;BME280;52789;59.980;30.346;2023-05-03T10:16:26;101576.75;;;9.23;62.54
66021;BME280;52789;59.980;30.346;2023-05-03T10:18:55;101572.47;;;9.32;62.60
66021;BME280;52789;59.980;30.346;2023-05-03T10:21:24;101577.59;;;9.54;61.32
66021;BME280;52789;59.980;30.346;2023-05-03T10:26:35;101586.91;;;9.89;56.95
66021;BME280;52789;59.980;30.346;2023-05-03T10:29:00;101600.34;;;9.87;55.59
66021;BME280;52789;59.980;30.346;2023-05-03T10:34:20;101596.31;;;10.12;55.70
66021;BME280;52789;59.980;30.346;2023-05-03T10:36:47;101604.72;;;10.17;56.30
66021;BME280;52789;59.980;30.346;2023-05-03T10:39:14;101614.66;;;10.15;53.37
66021;BME280;52789;59.980;30.346;2023-05-03T10:41:40;101617.16;;;10.07;53.22
66021;BME280;52789;59.980;30.346;2023-05-03T10:44:24;101626.53;;;10.11;54.17
66021;BME280;52789;59.980;30.346;2023-05-03T10:46:49;101628.69;;;10.27;53.05
66021;BME280;52789;59.980;30.346;2023-05-03T10:49:18;101623.50;;;10.35;53.96
66021;BME280;52789;59.980;30.346;2023-05-03T10:51:44;101625.16;;;10.65;53.50
66021;BME280;52789;59.980;30.346;2023-05-03T10:54:09;101634.94;;;10.94;52.56
66021;BME280;52789;59.980;30.346;2023-05-03T10:56:51;101645.03;;;11.09;50.65
66021;BME280;52789;59.980;30.346;2023-05-03T10:59:17;101651.47;;;11.07;49.17
66021;BME280;52789;59.980;30.346;2023-05-03T11:01:43;101650.72;;;11.24;50.99
66021;BME280;52789;59.980;30.346;2023-05-03T11:04:31;101659.50;;;11.44;49.60
66021;BME280;52789;59.980;30.346;2023-05-03T11:06:57;101671.31;;;11.41;47.87
66021;BME280;52789;59.980;30.346;2023-05-03T11:09:32;101668.09;;;11.38;47.91
66021;BME280;52789;59.980;30.346;2023-05-03T11:11:58;101673.53;;;11.46;47.86
66021;BME280;52789;59.980;30.346;2023-05-03T11:14:24;101670.81;;;11.56;46.64
66021;BME280;52789;59.980;30.346;2023-05-03T11:16:49;101676.56;;;11.61;47.21
66021;BME280;52789;59.980;30.346;2023-05-03T11:19:15;101677.63;;;11.40;46.76
66021;BME280;52789;59.980;30.346;2023-05-03T11:21:41;101683.53;;;11.34;47.31
66021;BME280;52789;59.980;30.346;2023-05-03T11:24:07;101697.47;;;11.18;47.25
66021;BME280;52789;59.980;30.346;2023-05-03T11:26:36;101694.81;;;11.09;47.06
66021;BME280;52789;59.980;30.346;2023-05-03T11:29:01;101699.03;;;10.92;46.35
66021;BME280;52789;59.980;30.346;2023-05-03T11:31:26;101688.84;;;10.78;46.68
66021;BME280;52789;59.980;30.346;2023-05-03T11:33:52;101698.66;;;10.58;45.62
66021;BME280;52789;59.980;30.346;2023-05-03T11:36:17;101698.66;;;10.58;45.79
66021;BME280;52789;59.980;30.346;2023-05-03T11:38:42;101709.00;;;10.61;46.03
66021;BME280;52789;59.980;30.346;2023-05-03T11:41:13;101706.78;;;10.57;45.93
66021;BME280;52789;59.980;30.346;2023-05-03T11:43:42;101712.38;;;10.63;46.37
66021;BME280;52789;59.980;30.346;2023-05-03T11:46:07;101715.88;;;10.64;45.42
66021;BME280;52789;59.980;30.346;2023-05-03T11:48:33;101714.91;;;10.65;46.07
66021;BME280;52789;59.980;30.346;2023-05-03T11:50:58;101704.66;;;10.60;46.32
66021;BME280;52789;59.980;30.346;2023-05-03T11:53:24;101707.75;;;10.84;47.48
66021;BME280;52789;59.980;30.346;2023-05-03T11:55:53;101717.72;;;11.02;47.19
66021;BME280;52789;59.980;30.346;2023-05-03T11:58:20;101703.19;;;11.33;47.91
66021;BME280;52789;59.980;30.346;2023-05-03T12:00:47;101719.81;;;11.55;47.31
66021;BME280;52789;59.980;30.346;2023-05-03T12:03:19;101703.50;;;11.67;44.92
66021;BME280;52789;59.980;30.346;2023-05-03T12:05:46;101717.88;;;11.47;42.90
66021;BME280;52789;59.980;30.346;2023-05-03T12:08:12;101722.09;;;11.49;43.27
66021;BME280;52789;59.980;30.346;2023-05-03T12:10:37;101724.16;;;11.65;44.45
66021;BME280;52789;59.980;30.346;2023-05-03T12:13:03;101728.81;;;11.54;43.11
66021;BME280;52789;59.980;30.346;2023-05-03T12:15:33;101724.47;;;11.53;45.68
66021;BME280;52789;59.980;30.346;2023-05-03T12:17:59;101723.81;;;11.41;46.23
66021;BME280;52789;59.980;30.346;2023-05-03T12:20:26;101734.94;;;11.17;47.19
66021;BME280;52789;59.980;30.346;2023-05-03T12:22:55;101720.53;;;10.81;48.12
66021;BME280;52789;59.980;30.346;2023-05-03T12:25:21;101730.03;;;10.64;48.83
66021;BME280;52789;59.980;30.346;2023-05-03T12:27:46;101727.78;;;10.69;48.38
66021;BME280;52789;59.980;30.346;2023-05-03T12:30:12;101730.06;;;10.83;47.65
66021;BME280;52789;59.980;30.346;2023-05-03T12:32:38;101731.03;;;11.02;47.62
66021;BME280;52789;59.980;30.346;2023-05-03T12:35:04;101729.75;;;11.15;45.54
66021;BME280;52789;59.980;30.346;2023-05-03T12:37:29;101729.22;;;11.02;44.57
66021;BME280;52789;59.980;30.346;2023-05-03T12:39:55;101737.06;;;11.04;44.58
66021;BME280;52789;59.980;30.346;2023-05-03T12:42:21;101742.69;;;11.01;45.26
66021;BME280;52789;59.980;30.346;2023-05-03T12:44:46;101737.63;;;11.07;46.48
66021;BME280;52789;59.980;30.346;2023-05-03T12:47:11;101744.94;;;11.05;46.14
66021;BME280;52789;59.980;30.346;2023-05-03T12:49:37;101738.31;;;11.19;45.60
66021;BME280;52789;59.980;30.346;2023-05-03T12:52:02;101731.88;;;11.12;44.12
66021;BME280;52789;59.980;30.346;2023-05-03T12:54:28;101743.06;;;11.15;44.65
66021;BME280;52789;59.980;30.346;2023-05-03T12:57:02;101741.13;;;11.08;44.54
66021;BME280;52789;59.980;30.346;2023-05-03T12:59:28;101753.03;;;10.94;45.47
66021;BME280;52789;59.980;30.346;2023-05-03T13:01:54;101749.41;;;10.85;44.39